createdAt,value
2016-08-08T00:00:44.791Z,62.22
2016-08-08T00:01:31.634Z,62.33
2016-08-08T00:02:34.514Z,62.29
2016-08-08T00:03:20.196Z,62.17
2016-08-08T00:04:37.124Z,62.35
2016-08-08T00:05:37.183Z,62.43
2016-08-08T00:06:33.767Z,62.36
2016-08-08T00:07:17.237Z,62.37
2016-08-08T00:08:13.375Z,62.46
2016-08-08T00:09:38.681Z,62.36
2016-08-08T00:10:35.380Z,62.18
2016-08-08T00:12:30.786Z,61.97
2016-08-08T00:13:34.214Z,61.74
2016-08-08T00:14:26.949Z,61.78
2016-08-08T00:15:24.477Z,61.51
2016-08-08T00:16:34.463Z,61.59
2016-08-08T00:17:37.793Z,61.59
2016-08-08T00:18:17.925Z,61.60
2016-08-08T00:19:37.837Z,61.14
2016-08-08T00:20:44.455Z,61.49
2016-08-08T00:21:33.215Z,61.56
2016-08-08T00:22:33.744Z,60.97
2016-08-08T00:23:15.000Z,61.06
2016-08-08T00:24:17.894Z,61.86
2016-08-08T00:25:44.628Z,61.47
2016-08-08T00:26:29.923Z,61.23
2016-08-08T00:27:30.212Z,61.07
2016-08-08T00:28:16.390Z,61.31
2016-08-08T00:29:24.951Z,61.52
2016-08-08T00:30:40.856Z,60.91
2016-08-08T00:31:36.752Z,61.26
2016-08-08T00:32:32.902Z,61.01
2016-08-08T00:33:28.118Z,61.44
2016-08-08T00:34:27.215Z,61.20
2016-08-08T00:35:39.803Z,61.27
2016-08-08T00:36:35.044Z,60.83
2016-08-08T00:37:29.669Z,61.15
2016-08-08T00:38:16.378Z,61.56
2016-08-08T00:39:22.316Z,61.63
2016-08-08T00:40:37.479Z,60.98
2016-08-08T00:41:26.143Z,61.13
2016-08-08T00:42:42.772Z,61.38
2016-08-08T00:43:44.071Z,60.68
2016-08-08T00:44:31.751Z,61.10
2016-08-08T00:45:19.746Z,61.06
2016-08-08T00:46:14.536Z,60.72
2016-08-08T00:47:37.179Z,60.89
2016-08-08T00:48:22.749Z,61.02
2016-08-08T00:49:33.990Z,60.86
2016-08-08T00:50:17.063Z,60.99
2016-08-08T00:51:21.935Z,61.03
2016-08-08T00:52:13.092Z,60.88
2016-08-08T00:53:24.830Z,60.78
2016-08-08T00:54:20.267Z,60.92
2016-08-08T00:55:12.816Z,60.71
2016-08-08T00:56:14.563Z,61.02
2016-08-08T00:57:16.762Z,61.45
2016-08-08T00:58:16.761Z,60.92
2016-08-08T00:59:13.607Z,61.25
2016-08-08T01:00:28.833Z,60.77
2016-08-08T01:01:29.685Z,60.79
2016-08-08T01:02:33.913Z,61.31
2016-08-08T01:03:24.361Z,60.82
2016-08-08T01:04:30.140Z,61.14
2016-08-08T01:05:33.443Z,61.12
2016-08-08T01:06:32.104Z,60.83
2016-08-08T01:07:37.149Z,60.63
2016-08-08T01:08:22.316Z,60.62
2016-08-08T01:09:27.143Z,60.80
2016-08-08T01:10:33.838Z,60.72
2016-08-08T01:12:36.377Z,60.81
2016-08-08T01:13:17.315Z,60.74
2016-08-08T01:14:31.717Z,61.10
2016-08-08T01:15:37.263Z,61.26
2016-08-08T01:16:31.209Z,60.96
2016-08-08T01:17:39.071Z,61.09
2016-08-08T01:18:17.055Z,61.23
2016-08-08T01:19:13.564Z,60.74
2016-08-08T01:20:33.754Z,61.06
2016-08-08T01:21:25.331Z,61.44
2016-08-08T01:22:36.737Z,61.35
2016-08-08T01:23:17.983Z,60.88
2016-08-08T01:24:13.622Z,61.02
2016-08-08T01:25:40.127Z,60.75
2016-08-08T01:26:44.394Z,61.15
2016-08-08T01:27:31.520Z,60.86
2016-08-08T01:28:26.203Z,61.10
2016-08-08T01:29:29.333Z,61.06
2016-08-08T01:30:29.834Z,61.29
2016-08-08T01:31:25.542Z,61.25
2016-08-08T01:32:33.980Z,60.91
2016-08-08T01:33:18.993Z,61.48
2016-08-08T01:34:20.419Z,61.32
2016-08-08T01:35:37.091Z,61.02
2016-08-08T01:36:32.826Z,60.96
2016-08-08T01:37:23.683Z,61.19
2016-08-08T01:38:33.656Z,61.30
2016-08-08T01:39:25.161Z,59.99
2016-08-08T01:40:38.224Z,59.81
2016-08-08T01:41:14.920Z,59.98
2016-08-08T01:42:40.959Z,60.66
2016-08-08T01:43:26.401Z,60.67
2016-08-08T01:44:44.017Z,59.89
2016-08-08T01:45:25.765Z,60.15
2016-08-08T01:46:49.903Z,60.59
2016-08-08T01:47:42.125Z,60.68
2016-08-08T01:48:22.773Z,61.04
2016-08-08T01:49:32.011Z,61.13
2016-08-08T01:50:37.050Z,61.09
2016-08-08T01:51:37.992Z,61.28
2016-08-08T01:52:41.587Z,61.52
2016-08-08T01:53:19.360Z,61.17
2016-08-08T01:54:27.263Z,61.42
2016-08-08T01:55:34.140Z,61.38
2016-08-08T01:57:27.413Z,61.27
2016-08-08T01:58:13.912Z,61.69
2016-08-08T01:59:17.595Z,61.32
2016-08-08T02:00:19.255Z,61.15
2016-08-08T02:01:20.069Z,61.10
2016-08-08T02:02:14.341Z,61.30
2016-08-08T02:03:15.126Z,61.33
2016-08-08T02:04:15.828Z,61.35
2016-08-08T02:05:45.200Z,61.40
2016-08-08T02:06:27.667Z,61.62
2016-08-08T02:07:37.069Z,61.51
2016-08-08T02:08:13.957Z,61.24
2016-08-08T02:09:32.080Z,61.52
2016-08-08T02:10:39.315Z,61.36
2016-08-08T02:11:28.503Z,61.45
2016-08-08T02:12:43.354Z,61.39
2016-08-08T02:13:17.085Z,61.23
2016-08-08T02:14:14.204Z,61.30
2016-08-08T02:15:44.050Z,61.45
2016-08-08T02:16:41.445Z,61.42
2016-08-08T02:17:39.371Z,61.49
2016-08-08T02:18:19.945Z,61.74
2016-08-08T02:19:45.208Z,61.48
2016-08-08T02:20:38.853Z,61.21
2016-08-08T02:21:39.362Z,61.06
2016-08-08T02:22:38.529Z,61.62
2016-08-08T02:23:18.916Z,61.39
2016-08-08T02:24:33.005Z,61.34
2016-08-08T02:25:21.427Z,61.53
2016-08-08T02:26:43.132Z,60.13
2016-08-08T02:27:41.323Z,60.42
2016-08-08T02:28:16.416Z,60.14
2016-08-08T02:29:21.775Z,60.22
2016-08-08T02:30:37.781Z,60.02
2016-08-08T02:31:16.168Z,60.13
2016-08-08T02:32:36.240Z,60.16
2016-08-08T02:33:14.637Z,59.70
2016-08-08T02:34:21.057Z,59.90
2016-08-08T02:35:33.862Z,59.72
2016-08-08T02:36:36.670Z,60.02
2016-08-08T02:37:44.551Z,60.46
2016-08-08T02:38:19.692Z,60.93
2016-08-08T02:39:38.772Z,61.13
2016-08-08T02:40:34.975Z,61.73
2016-08-08T02:41:32.615Z,61.60
2016-08-08T02:42:23.669Z,61.46
2016-08-08T02:43:19.419Z,61.73
2016-08-08T02:44:27.396Z,61.28
2016-08-08T02:45:38.750Z,61.47
2016-08-08T02:46:39.355Z,61.22
2016-08-08T02:47:20.076Z,61.73
2016-08-08T02:48:22.440Z,61.54
2016-08-08T02:49:43.450Z,61.38
2016-08-08T02:50:39.380Z,61.67
2016-08-08T02:51:32.304Z,61.50
2016-08-08T02:52:36.472Z,61.88
2016-08-08T02:53:23.660Z,61.44
2016-08-08T02:54:33.738Z,61.43
2016-08-08T02:55:44.784Z,61.39
2016-08-08T02:56:44.840Z,61.71
2016-08-08T02:57:30.722Z,61.44
2016-08-08T02:58:22.332Z,61.69
2016-08-08T02:59:34.099Z,61.67
2016-08-08T03:00:31.538Z,61.61
2016-08-08T03:01:32.507Z,61.19
2016-08-08T03:02:31.999Z,61.22
2016-08-08T03:03:20.723Z,61.41
2016-08-08T03:04:21.816Z,61.50
2016-08-08T03:05:15.556Z,60.71
2016-08-08T03:06:22.797Z,60.05
2016-08-08T03:07:15.436Z,60.18
2016-08-08T03:08:11.527Z,60.06
2016-08-08T03:09:14.974Z,60.01
2016-08-08T03:10:13.421Z,59.89
2016-08-08T03:11:33.778Z,59.73
2016-08-08T03:12:35.399Z,59.79
2016-08-08T03:13:22.101Z,60.44
2016-08-08T03:14:34.831Z,60.78
2016-08-08T03:15:33.628Z,61.24
2016-08-08T03:16:45.135Z,61.23
2016-08-08T03:17:32.865Z,61.48
2016-08-08T03:18:19.120Z,61.40
2016-08-08T03:19:22.243Z,60.41
2016-08-08T03:20:33.784Z,60.25
2016-08-08T03:21:25.724Z,61.11
2016-08-08T03:22:38.145Z,61.46
2016-08-08T03:23:18.159Z,61.46
2016-08-08T03:24:27.379Z,61.62
2016-08-08T03:25:44.794Z,61.76
2016-08-08T03:26:50.362Z,61.59
2016-08-08T03:27:41.254Z,61.49
2016-08-08T03:28:20.587Z,61.64
2016-08-08T03:29:33.578Z,61.59
2016-08-08T03:30:44.807Z,61.75
2016-08-08T03:31:15.224Z,61.49
2016-08-08T03:32:39.417Z,61.59
2016-08-08T03:33:21.457Z,61.87
2016-08-08T03:34:32.107Z,61.77
2016-08-08T03:35:27.909Z,61.60
2016-08-08T03:36:14.101Z,61.21
2016-08-08T03:37:46.358Z,61.47
2016-08-08T03:38:17.585Z,61.46
2016-08-08T03:39:49.602Z,60.81
2016-08-08T03:40:33.356Z,60.94
2016-08-08T03:41:37.881Z,61.23
2016-08-08T03:42:38.024Z,61.34
2016-08-08T03:43:14.611Z,61.54
2016-08-08T03:44:25.101Z,61.59
2016-08-08T03:45:36.633Z,61.30
2016-08-08T03:46:50.814Z,61.49
2016-08-08T03:47:25.709Z,61.87
2016-08-08T03:48:22.498Z,60.70
2016-08-08T03:49:34.310Z,60.47
2016-08-08T03:50:33.394Z,60.23
2016-08-08T03:51:26.022Z,61.11
2016-08-08T03:52:25.529Z,61.59
2016-08-08T03:53:14.093Z,61.75
2016-08-08T03:54:30.369Z,61.52
2016-08-08T03:55:29.759Z,61.66
2016-08-08T03:56:33.619Z,61.41
2016-08-08T03:57:33.399Z,61.52
2016-08-08T03:58:10.618Z,61.45
2016-08-08T03:59:23.425Z,61.41
2016-08-08T04:00:22.169Z,61.73
2016-08-08T04:01:38.643Z,61.49
2016-08-08T04:02:27.911Z,61.77
2016-08-08T04:03:22.758Z,61.74
2016-08-08T04:04:26.489Z,61.64
2016-08-08T04:05:28.481Z,61.80
2016-08-08T04:06:42.566Z,61.67
2016-08-08T04:07:30.284Z,61.73
2016-08-08T04:08:16.908Z,61.91
2016-08-08T04:09:23.393Z,61.62
2016-08-08T04:10:32.740Z,61.57
2016-08-08T04:11:14.920Z,60.85
2016-08-08T04:12:18.036Z,61.58
2016-08-08T04:13:17.657Z,61.78
2016-08-08T04:14:21.482Z,61.74
2016-08-08T04:15:23.185Z,61.87
2016-08-08T04:16:11.832Z,61.67
2016-08-08T04:17:23.301Z,61.79
2016-08-08T04:18:20.582Z,61.77
2016-08-08T04:19:27.168Z,61.93
2016-08-08T04:20:53.212Z,61.82
2016-08-08T04:21:20.927Z,61.89
2016-08-08T04:22:42.269Z,61.67
2016-08-08T04:23:22.460Z,61.80
2016-08-08T04:24:34.774Z,61.75
2016-08-08T04:25:27.306Z,61.67
2016-08-08T04:26:33.112Z,61.69
2016-08-08T04:28:15.018Z,61.73
2016-08-08T04:29:25.034Z,61.49
2016-08-08T04:30:35.111Z,61.66
2016-08-08T04:31:13.780Z,61.73
2016-08-08T04:32:32.264Z,61.78
2016-08-08T04:33:22.085Z,61.90
2016-08-08T04:34:36.259Z,61.94
2016-08-08T04:35:32.890Z,61.70
2016-08-08T04:36:49.949Z,61.57
2016-08-08T04:37:12.621Z,60.95
2016-08-08T04:38:26.820Z,61.59
2016-08-08T04:39:28.838Z,61.83
2016-08-08T04:40:29.268Z,61.81
2016-08-08T04:41:35.756Z,61.88
2016-08-08T04:43:20.685Z,61.82
2016-08-08T04:44:34.032Z,61.85
2016-08-08T04:45:30.849Z,60.72
2016-08-08T04:46:26.028Z,60.70
2016-08-08T04:47:54.752Z,61.65
2016-08-08T04:48:23.306Z,61.80
2016-08-08T04:49:34.506Z,61.79
2016-08-08T04:50:42.461Z,61.81
2016-08-08T04:51:29.411Z,61.76
2016-08-08T04:52:35.884Z,61.90
2016-08-08T04:53:31.074Z,61.92
2016-08-08T04:54:19.372Z,61.92
2016-08-08T04:55:42.047Z,61.88
2016-08-08T04:56:13.886Z,61.98
2016-08-08T04:57:38.728Z,61.74
2016-08-08T04:58:22.372Z,61.82
2016-08-08T04:59:16.779Z,61.85
2016-08-08T05:00:41.728Z,61.82
2016-08-08T05:01:37.723Z,61.86
2016-08-08T05:02:33.101Z,61.93
2016-08-08T05:03:21.125Z,61.94
2016-08-08T05:04:22.862Z,61.86
2016-08-08T05:05:33.636Z,61.91
2016-08-08T05:06:20.520Z,61.96
2016-08-08T05:07:39.118Z,61.91
2016-08-08T05:08:21.989Z,61.90
2016-08-08T05:09:23.695Z,61.87
2016-08-08T05:10:17.509Z,61.87
2016-08-08T05:11:37.732Z,61.85
2016-08-08T05:12:42.244Z,61.90
2016-08-08T05:13:18.414Z,61.90
2016-08-08T05:14:16.511Z,61.91
2016-08-08T05:15:13.141Z,61.87
2016-08-08T05:16:30.880Z,60.88
2016-08-08T05:17:29.112Z,60.66
2016-08-08T05:18:19.868Z,60.55
2016-08-08T05:19:16.717Z,60.53
2016-08-08T05:20:17.961Z,60.52
2016-08-08T05:21:18.361Z,60.49
2016-08-08T05:22:13.921Z,60.48
2016-08-08T05:23:16.336Z,60.40
2016-08-08T05:24:17.336Z,60.44
2016-08-08T05:25:26.586Z,60.38
2016-08-08T05:26:26.282Z,60.66
2016-08-08T05:27:24.440Z,61.40
2016-08-08T05:28:17.426Z,61.63
2016-08-08T05:29:25.172Z,61.66
2016-08-08T05:30:33.011Z,61.74
2016-08-08T05:31:26.033Z,61.80
2016-08-08T05:32:20.599Z,61.82
2016-08-08T05:33:15.345Z,61.77
2016-08-08T05:34:36.408Z,61.86
2016-08-08T05:35:23.570Z,61.85
2016-08-08T05:36:29.645Z,61.89
2016-08-08T05:37:38.327Z,61.85
2016-08-08T05:38:25.282Z,61.88
2016-08-08T05:39:17.405Z,61.89
2016-08-08T05:40:40.563Z,61.90
2016-08-08T05:41:23.076Z,61.91
2016-08-08T05:42:45.616Z,61.87
2016-08-08T05:43:22.223Z,61.89
2016-08-08T05:44:25.878Z,61.87
2016-08-08T05:45:36.722Z,61.88
2016-08-08T05:46:23.179Z,61.90
2016-08-08T05:47:41.670Z,61.88
2016-08-08T05:48:30.022Z,61.89
2016-08-08T05:49:35.586Z,61.86
2016-08-08T05:50:23.962Z,61.86
2016-08-08T05:51:41.618Z,61.86
2016-08-08T05:52:28.326Z,61.90
2016-08-08T05:53:31.346Z,61.87
2016-08-08T05:54:26.577Z,61.85
2016-08-08T05:55:33.261Z,61.87
2016-08-08T05:56:34.877Z,61.91
2016-08-08T05:57:27.976Z,61.85
2016-08-08T05:58:13.718Z,61.86
2016-08-08T05:59:28.301Z,61.86
2016-08-08T06:00:32.271Z,61.88
2016-08-08T06:01:44.146Z,61.83
2016-08-08T06:02:39.062Z,61.79
2016-08-08T06:03:33.399Z,61.80
2016-08-08T06:04:28.235Z,61.80
2016-08-08T06:05:19.238Z,61.82
2016-08-08T06:06:31.621Z,61.81
2016-08-08T06:07:20.215Z,61.79
2016-08-08T06:08:39.154Z,61.80
2016-08-08T06:09:31.292Z,61.80
2016-08-08T06:10:26.083Z,61.73
2016-08-08T06:11:15.006Z,61.79
2016-08-08T06:12:35.165Z,61.76
2016-08-08T06:13:30.977Z,61.79
2016-08-08T06:14:33.545Z,61.79
2016-08-08T06:15:24.696Z,61.76
2016-08-08T06:16:33.089Z,61.79
2016-08-08T06:17:21.047Z,61.77
2016-08-08T06:18:39.664Z,61.80
2016-08-08T06:19:39.237Z,61.80
2016-08-08T06:20:18.316Z,61.81
2016-08-08T06:21:30.459Z,61.79
2016-08-08T06:22:35.401Z,61.76
2016-08-08T06:23:51.543Z,61.72
2016-08-08T06:24:37.336Z,61.02
2016-08-08T06:25:53.791Z,61.55
2016-08-08T06:26:40.999Z,61.64
2016-08-08T06:27:42.522Z,61.68
2016-08-08T06:28:40.214Z,61.72
2016-08-08T06:29:12.884Z,61.73
2016-08-08T06:30:14.549Z,61.75
2016-08-08T06:31:13.937Z,61.72
2016-08-08T06:32:33.901Z,61.75
2016-08-08T06:33:44.480Z,61.72
2016-08-08T06:34:26.134Z,61.71
2016-08-08T06:35:34.850Z,61.73
2016-08-08T06:36:45.108Z,61.72
2016-08-08T06:37:33.569Z,61.72
2016-08-08T06:38:38.747Z,61.57
2016-08-08T06:39:14.100Z,60.96
2016-08-08T06:40:23.949Z,61.46
2016-08-08T06:41:44.501Z,61.58
2016-08-08T06:42:36.672Z,61.71
2016-08-08T06:43:39.037Z,61.72
2016-08-08T06:44:37.190Z,61.67
2016-08-08T06:45:32.145Z,61.67
2016-08-08T06:46:13.060Z,61.67
2016-08-08T06:47:26.188Z,61.66
2016-08-08T06:48:36.664Z,61.67
2016-08-08T06:49:32.760Z,61.67
2016-08-08T06:50:29.831Z,61.70
2016-08-08T06:51:46.572Z,61.73
2016-08-08T06:52:34.983Z,61.73
2016-08-08T06:53:50.773Z,61.75
2016-08-08T06:54:28.189Z,61.78
2016-08-08T06:55:20.184Z,61.73
2016-08-08T06:56:18.976Z,60.83
2016-08-08T06:57:18.635Z,60.83
2016-08-08T06:58:38.676Z,61.82
2016-08-08T06:59:13.817Z,62.14
2016-08-08T07:00:54.496Z,62.12
2016-08-08T07:01:21.535Z,62.19
2016-08-08T07:02:13.101Z,62.49
2016-08-08T07:03:31.274Z,62.45
2016-08-08T07:04:42.624Z,62.57
2016-08-08T07:05:27.836Z,62.50
2016-08-08T07:06:38.756Z,62.64
2016-08-08T07:07:46.739Z,62.53
2016-08-08T07:08:51.071Z,62.54
2016-08-08T07:09:23.066Z,62.50
2016-08-08T07:10:46.552Z,61.72
2016-08-08T07:11:26.132Z,62.34
2016-08-08T07:12:32.964Z,62.46
2016-08-08T07:13:32.921Z,62.46
2016-08-08T07:14:31.779Z,62.55
2016-08-08T07:15:47.384Z,62.51
2016-08-08T07:16:30.617Z,62.52
2016-08-08T07:17:35.307Z,62.49
2016-08-08T07:18:12.581Z,62.39
2016-08-08T07:19:39.672Z,62.48
2016-08-08T07:20:38.828Z,62.52
2016-08-08T07:21:45.983Z,62.50
2016-08-08T07:22:33.201Z,62.51
2016-08-08T07:23:42.082Z,62.47
2016-08-08T07:24:25.846Z,62.55
2016-08-08T07:25:28.788Z,62.51
2016-08-08T07:26:37.193Z,62.54
2016-08-08T07:27:44.584Z,62.79
2016-08-08T07:28:36.442Z,62.82
2016-08-08T07:29:33.258Z,62.89
2016-08-08T07:30:41.260Z,63.07
2016-08-08T07:31:49.455Z,63.06
2016-08-08T07:32:35.903Z,63.18
2016-08-08T07:33:33.981Z,63.28
2016-08-08T07:34:25.321Z,63.30
2016-08-08T07:35:31.684Z,63.28
2016-08-08T07:37:02.805Z,63.35
2016-08-08T07:37:45.951Z,63.28
2016-08-08T07:38:42.400Z,63.39
2016-08-08T07:39:43.608Z,63.43
2016-08-08T07:40:37.651Z,62.37
2016-08-08T07:41:30.592Z,62.18
2016-08-08T07:42:29.317Z,63.12
2016-08-08T07:43:33.567Z,63.21
2016-08-08T07:44:35.847Z,63.28
2016-08-08T07:45:26.031Z,63.26
2016-08-08T07:46:39.179Z,63.27
2016-08-08T07:47:12.875Z,63.26
2016-08-08T07:48:33.605Z,63.24
2016-08-08T07:49:27.266Z,63.21
2016-08-08T07:50:32.637Z,63.19
2016-08-08T07:51:29.243Z,63.16
2016-08-08T07:52:22.166Z,63.17
2016-08-08T07:53:26.720Z,63.17
2016-08-08T07:54:38.425Z,63.15
2016-08-08T07:55:44.580Z,63.13
2016-08-08T07:56:44.210Z,63.12
2016-08-08T07:57:43.215Z,63.12
2016-08-08T07:58:29.233Z,63.08
2016-08-08T07:59:33.321Z,63.10
2016-08-08T08:00:50.734Z,63.05
2016-08-08T08:01:44.916Z,63.05
2016-08-08T08:02:48.689Z,63.04
2016-08-08T08:03:41.872Z,63.06
2016-08-08T08:04:35.602Z,61.97
2016-08-08T08:06:00.684Z,61.78
2016-08-08T08:06:28.334Z,62.58
2016-08-08T08:07:44.582Z,62.77
2016-08-08T08:08:48.857Z,62.85
2016-08-08T08:09:25.186Z,62.88
2016-08-08T08:10:30.501Z,61.87
2016-08-08T08:11:33.517Z,61.66
2016-08-08T08:12:43.811Z,62.51
2016-08-08T08:13:31.871Z,62.68
2016-08-08T08:14:13.626Z,62.74
2016-08-08T08:15:29.376Z,62.78
2016-08-08T08:16:12.756Z,62.78
2016-08-08T08:17:15.866Z,62.80
2016-08-08T08:18:16.074Z,62.87
2016-08-08T08:19:24.822Z,61.80
2016-08-08T08:20:40.230Z,61.70
2016-08-08T08:21:33.916Z,62.46
2016-08-08T08:22:41.242Z,62.58
2016-08-08T08:23:53.450Z,62.65
2016-08-08T08:24:45.122Z,61.87
2016-08-08T08:25:42.345Z,62.47
2016-08-08T08:26:42.692Z,62.58
2016-08-08T08:27:38.910Z,62.62
2016-08-08T08:28:50.472Z,62.65
2016-08-08T08:29:33.059Z,62.65
2016-08-08T08:30:44.010Z,62.51
2016-08-08T08:31:29.477Z,61.64
2016-08-08T08:32:14.393Z,61.42
2016-08-08T08:33:25.437Z,61.30
2016-08-08T08:34:43.119Z,61.24
2016-08-08T08:35:37.182Z,61.21
2016-08-08T08:36:43.845Z,61.18
2016-08-08T08:37:37.812Z,61.16
2016-08-08T08:38:29.279Z,61.12
2016-08-08T08:39:26.401Z,61.11
2016-08-08T08:40:15.753Z,61.08
2016-08-08T08:41:21.780Z,61.91
2016-08-08T08:42:52.885Z,61.26
2016-08-08T08:43:37.843Z,61.16
2016-08-08T08:44:48.030Z,61.11
2016-08-08T08:45:20.105Z,61.07
2016-08-08T08:46:38.024Z,61.05
2016-08-08T08:47:51.103Z,61.03
2016-08-08T08:48:38.870Z,61.41
2016-08-08T08:49:35.844Z,62.00
2016-08-08T08:50:36.855Z,62.19
2016-08-08T08:51:30.399Z,62.27
2016-08-08T08:52:42.262Z,62.32
2016-08-08T08:53:39.894Z,62.34
2016-08-08T08:54:37.126Z,62.36
2016-08-08T08:55:47.265Z,62.36
2016-08-08T08:56:15.873Z,62.37
2016-08-08T08:57:37.974Z,62.36
2016-08-08T08:58:36.990Z,62.38
2016-08-08T08:59:35.757Z,62.36
2016-08-08T09:00:44.399Z,62.36
2016-08-08T09:01:44.818Z,62.35
2016-08-08T09:02:13.756Z,62.35
2016-08-08T09:03:43.090Z,62.35
2016-08-08T09:04:44.558Z,62.33
2016-08-08T09:05:14.024Z,62.30
2016-08-08T09:06:42.403Z,62.31
2016-08-08T09:07:34.611Z,61.31
2016-08-08T09:08:33.597Z,61.09
2016-08-08T09:09:14.318Z,60.91
2016-08-08T09:10:14.380Z,61.25
2016-08-08T09:11:34.423Z,61.86
2016-08-08T09:12:44.779Z,62.03
2016-08-08T09:14:37.641Z,62.16
2016-08-08T09:15:20.637Z,62.18
2016-08-08T09:16:21.570Z,62.19
2016-08-08T09:17:23.151Z,62.19
2016-08-08T09:18:35.325Z,62.19
2016-08-08T09:19:41.513Z,62.19
2016-08-08T09:20:49.729Z,62.18
2016-08-08T09:21:40.761Z,62.19
2016-08-08T09:22:45.826Z,62.19
2016-08-08T09:23:36.455Z,62.19
2016-08-08T09:24:38.002Z,62.20
2016-08-08T09:25:32.589Z,62.17
2016-08-08T09:26:37.969Z,62.17
2016-08-08T09:27:46.545Z,62.15
2016-08-08T09:28:46.111Z,62.16
2016-08-08T09:29:45.457Z,62.13
2016-08-08T09:30:38.398Z,62.14
2016-08-08T09:31:45.561Z,62.12
2016-08-08T09:32:49.398Z,61.97
2016-08-08T09:33:24.477Z,61.12
2016-08-08T09:34:21.222Z,60.90
2016-08-08T09:35:40.634Z,61.10
2016-08-08T09:36:44.413Z,61.75
2016-08-08T09:37:51.103Z,61.91
2016-08-08T09:38:22.701Z,61.96
2016-08-08T09:39:28.698Z,62.01
2016-08-08T09:40:46.137Z,62.03
2016-08-08T09:41:34.659Z,62.03
2016-08-08T09:42:38.922Z,62.02
2016-08-08T09:43:44.471Z,62.03
2016-08-08T09:44:44.490Z,62.02
2016-08-08T09:45:29.671Z,62.00
2016-08-08T09:46:32.282Z,62.01
2016-08-08T09:47:28.491Z,62.01
2016-08-08T09:48:12.818Z,62.01
2016-08-08T09:49:52.623Z,61.99
2016-08-08T09:50:39.832Z,61.98
2016-08-08T09:51:54.163Z,61.97
2016-08-08T09:52:47.953Z,61.96
2016-08-08T09:53:26.356Z,61.98
2016-08-08T09:54:22.742Z,61.95
2016-08-08T09:55:31.229Z,61.93
2016-08-08T09:56:21.016Z,61.92
2016-08-08T09:57:39.703Z,61.95
2016-08-08T09:58:39.227Z,61.92
2016-08-08T09:59:21.790Z,61.92
2016-08-08T10:00:31.554Z,61.94
2016-08-08T10:01:40.162Z,61.92
2016-08-08T10:02:42.778Z,61.90
2016-08-08T10:03:26.592Z,61.88
2016-08-08T10:04:46.708Z,61.88
2016-08-08T10:05:13.690Z,61.87
2016-08-08T10:06:46.147Z,61.88
2016-08-08T10:07:33.618Z,61.87
2016-08-08T10:08:13.431Z,61.86
2016-08-08T10:09:41.138Z,61.86
2016-08-08T10:10:36.429Z,61.84
2016-08-08T10:11:34.259Z,61.85
2016-08-08T10:12:31.700Z,61.85
2016-08-08T10:13:38.990Z,61.82
2016-08-08T10:14:20.187Z,61.84
2016-08-08T10:15:39.226Z,61.80
2016-08-08T10:16:40.568Z,61.80
2016-08-08T10:17:42.936Z,61.81
2016-08-08T10:18:36.413Z,61.79
2016-08-08T10:19:32.209Z,61.77
2016-08-08T10:20:38.637Z,61.77
2016-08-08T10:21:41.649Z,61.76
2016-08-08T10:22:45.628Z,61.75
2016-08-08T10:23:36.198Z,61.73
2016-08-08T10:24:43.008Z,61.63
2016-08-08T10:25:29.678Z,60.74
2016-08-08T10:26:50.637Z,60.83
2016-08-08T10:27:44.741Z,61.42
2016-08-08T10:29:18.322Z,61.50
2016-08-08T10:30:32.248Z,61.55
2016-08-08T10:31:26.706Z,61.41
2016-08-08T10:32:46.134Z,60.53
2016-08-08T10:33:29.575Z,60.27
2016-08-08T10:34:44.067Z,60.36
2016-08-08T10:35:49.214Z,60.12
2016-08-08T10:36:44.794Z,60.01
2016-08-08T10:37:38.545Z,59.99
2016-08-08T10:38:30.225Z,60.11
2016-08-08T10:39:20.028Z,60.00
2016-08-08T10:40:44.561Z,60.01
2016-08-08T10:41:35.799Z,60.00
2016-08-08T10:42:37.336Z,60.01
2016-08-08T10:44:33.210Z,59.95
2016-08-08T10:45:33.614Z,60.32
2016-08-08T10:46:49.132Z,60.96
2016-08-08T10:47:37.725Z,61.15
2016-08-08T10:48:37.096Z,61.25
2016-08-08T10:49:21.607Z,61.33
2016-08-08T10:50:25.331Z,61.36
2016-08-08T10:51:38.878Z,61.23
2016-08-08T10:52:49.904Z,60.78
2016-08-08T10:53:36.765Z,61.22
2016-08-08T10:54:28.676Z,61.40
2016-08-08T10:55:42.977Z,61.41
2016-08-08T10:56:35.923Z,61.43
2016-08-08T10:57:44.149Z,61.45
2016-08-08T10:59:44.547Z,61.55
2016-08-08T11:00:23.282Z,61.53
2016-08-08T11:01:27.305Z,61.54
2016-08-08T11:02:51.183Z,61.56
2016-08-08T11:03:44.653Z,61.57
2016-08-08T11:04:36.195Z,61.56
2016-08-08T11:05:26.826Z,61.57
2016-08-08T11:06:39.362Z,61.59
2016-08-08T11:07:37.215Z,61.60
2016-08-08T11:08:32.468Z,61.59
2016-08-08T11:09:31.664Z,61.60
2016-08-08T11:10:29.298Z,61.66
2016-08-08T11:11:32.368Z,61.70
2016-08-08T11:12:33.980Z,61.70
2016-08-08T11:13:12.576Z,61.69
2016-08-08T11:14:14.863Z,61.51
2016-08-08T11:15:35.537Z,60.69
2016-08-08T11:16:49.388Z,60.49
2016-08-08T11:17:11.794Z,60.41
2016-08-08T11:18:44.958Z,60.37
2016-08-08T11:19:37.046Z,60.32
2016-08-08T11:20:40.882Z,60.32
2016-08-08T11:21:29.188Z,60.64
2016-08-08T11:22:34.973Z,61.10
2016-08-08T11:23:42.009Z,60.46
2016-08-08T11:24:27.431Z,60.35
2016-08-08T11:25:18.878Z,60.28
2016-08-08T11:26:34.248Z,60.25
2016-08-08T11:27:30.090Z,60.23
2016-08-08T11:28:28.903Z,61.15
2016-08-08T11:29:46.232Z,61.35
2016-08-08T11:30:42.382Z,61.46
2016-08-08T11:31:26.186Z,61.50
2016-08-08T11:32:34.271Z,61.52
2016-08-08T11:33:46.622Z,61.55
2016-08-08T11:34:32.089Z,61.55
2016-08-08T11:35:31.280Z,61.54
2016-08-08T11:36:21.919Z,61.54
2016-08-08T11:37:36.850Z,61.57
2016-08-08T11:38:14.601Z,61.56
2016-08-08T11:39:17.730Z,61.56
2016-08-08T11:40:39.018Z,61.53
2016-08-08T11:41:36.947Z,61.52
2016-08-08T11:42:46.192Z,61.52
2016-08-08T11:43:50.039Z,61.51
2016-08-08T11:44:43.601Z,61.53
2016-08-08T11:45:37.585Z,61.54
2016-08-08T11:46:18.949Z,61.55
2016-08-08T11:47:51.207Z,61.55
2016-08-08T11:48:38.061Z,61.59
2016-08-08T11:49:44.627Z,61.59
2016-08-08T11:50:19.130Z,61.62
2016-08-08T11:51:12.971Z,61.60
2016-08-08T11:52:30.831Z,61.68
2016-08-08T11:53:45.164Z,61.73
2016-08-08T11:54:34.693Z,61.77
2016-08-08T11:55:13.286Z,61.79
2016-08-08T11:56:26.721Z,60.80
2016-08-08T11:57:43.900Z,60.58
2016-08-08T11:58:13.961Z,60.45
2016-08-08T11:59:49.448Z,61.39
2016-08-08T12:00:40.030Z,61.57
2016-08-08T12:01:11.792Z,61.68
2016-08-08T12:02:15.146Z,61.70
2016-08-08T12:03:43.073Z,61.73
2016-08-08T12:04:41.431Z,61.75
2016-08-08T12:05:37.636Z,61.75
2016-08-08T12:06:22.180Z,61.77
2016-08-08T12:07:18.546Z,61.78
2016-08-08T12:08:45.346Z,61.77
2016-08-08T12:09:19.228Z,61.76
2016-08-08T12:10:37.907Z,61.75
2016-08-08T12:11:30.403Z,61.76
2016-08-08T12:12:14.395Z,61.75
2016-08-08T12:13:38.763Z,61.74
2016-08-08T12:14:27.658Z,61.73
2016-08-08T12:15:15.168Z,60.71
2016-08-08T12:16:14.046Z,60.53
2016-08-08T12:17:39.640Z,60.41
2016-08-08T12:18:19.692Z,60.34
2016-08-08T12:19:31.937Z,60.29
2016-08-08T12:20:32.010Z,60.27
2016-08-08T12:21:25.769Z,61.17
2016-08-08T12:22:33.690Z,61.41
2016-08-08T12:23:21.051Z,61.50
2016-08-08T12:24:22.187Z,61.53
2016-08-08T12:25:36.340Z,61.59
2016-08-08T12:26:36.302Z,61.57
2016-08-08T12:27:33.108Z,61.59
2016-08-08T12:28:24.039Z,61.59
2016-08-08T12:29:29.190Z,60.69
2016-08-08T12:30:43.140Z,61.37
2016-08-08T12:31:12.868Z,61.48
2016-08-08T12:32:39.169Z,61.54
2016-08-08T12:33:40.510Z,61.54
2016-08-08T12:34:45.110Z,61.56
2016-08-08T12:35:15.549Z,61.54
2016-08-08T12:36:29.795Z,61.55
2016-08-08T12:37:37.757Z,61.55
2016-08-08T12:38:38.740Z,61.55
2016-08-08T12:39:42.960Z,61.55
2016-08-08T12:40:41.418Z,61.54
2016-08-08T12:41:38.876Z,61.51
2016-08-08T12:42:40.277Z,61.52
2016-08-08T12:43:19.661Z,61.54
2016-08-08T12:45:38.019Z,60.30
2016-08-08T12:46:28.521Z,60.15
2016-08-08T12:47:43.349Z,60.15
2016-08-08T12:48:20.107Z,60.07
2016-08-08T12:49:36.589Z,60.27
2016-08-08T12:50:14.424Z,61.00
2016-08-08T12:51:34.304Z,61.19
2016-08-08T12:52:35.136Z,61.30
2016-08-08T12:53:12.679Z,61.39
2016-08-08T12:54:31.428Z,61.20
2016-08-08T12:55:37.021Z,60.40
2016-08-08T12:56:20.860Z,60.23
2016-08-08T12:57:43.504Z,60.11
2016-08-08T12:58:21.084Z,60.05
2016-08-08T13:00:30.029Z,59.98
2016-08-08T13:01:39.078Z,59.99
2016-08-08T13:02:44.478Z,59.95
2016-08-08T13:03:33.589Z,59.92